createdAt,value
2022-08-29T00:00:52.538Z,19.64
2022-08-29T00:03:24.573Z,19.51
2022-08-29T00:05:56.572Z,19.39
2022-08-29T00:08:27.801Z,19.46
2022-08-29T00:10:59.512Z,19.33
2022-08-29T00:13:31.233Z,19.45
2022-08-29T00:16:03.470Z,19.37
2022-08-29T00:18:35.563Z,19.26
2022-08-29T00:21:08.010Z,19.14
2022-08-29T00:23:40.506Z,19.22
2022-08-29T00:26:12.245Z,19.10
2022-08-29T00:28:44.022Z,19.15
2022-08-29T00:31:15.817Z,19.19
2022-08-29T00:33:47.585Z,19.11
2022-08-29T00:36:19.440Z,19.26
2022-08-29T00:38:54.509Z,19.28
2022-08-29T00:41:26.307Z,19.33
2022-08-29T00:43:58.308Z,19.33
2022-08-29T00:46:46.246Z,19.36
2022-08-29T00:49:30.404Z,19.32
2022-08-29T00:52:05.662Z,19.25
2022-08-29T00:54:38.807Z,19.19
2022-08-29T00:57:10.820Z,19.05
2022-08-29T00:59:43.268Z,18.99
2022-08-29T01:02:15.416Z,19.08
2022-08-29T01:04:47.548Z,19.11
2022-08-29T01:07:20.377Z,19.06
2022-08-29T01:09:52.953Z,18.94
2022-08-29T01:12:23.917Z,19.01
2022-08-29T01:14:57.840Z,18.91
2022-08-29T01:17:34.848Z,18.95
2022-08-29T01:20:14.032Z,18.94
2022-08-29T01:23:00.827Z,18.88
2022-08-29T01:25:37.312Z,18.92
2022-08-29T01:28:14.746Z,18.71
2022-08-29T01:31:01.769Z,18.84
2022-08-29T01:33:43.774Z,18.62
2022-08-29T01:36:17.790Z,18.60
2022-08-29T01:38:49.916Z,18.69
2022-08-29T01:41:23.006Z,18.78
2022-08-29T01:43:58.251Z,18.70
2022-08-29T01:46:32.492Z,18.66
2022-08-29T01:49:07.808Z,18.53
2022-08-29T01:51:40.553Z,18.34
2022-08-29T01:54:11.170Z,18.41
2022-08-29T01:56:46.565Z,18.38
2022-08-29T01:59:21.616Z,18.42
2022-08-29T02:01:59.574Z,18.40
2022-08-29T02:04:31.893Z,18.37
2022-08-29T02:07:06.439Z,18.27
2022-08-29T02:09:43.199Z,18.15
2022-08-29T02:12:19.332Z,18.21
2022-08-29T02:14:51.873Z,18.13
2022-08-29T02:17:24.659Z,18.24
2022-08-29T02:19:56.432Z,18.03
2022-08-29T02:22:28.129Z,18.10
2022-08-29T02:25:23.702Z,18.22
2022-08-29T02:27:56.269Z,17.99
2022-08-29T02:30:28.360Z,18.16
2022-08-29T02:32:59.992Z,18.23
2022-08-29T02:35:37.968Z,18.15
2022-08-29T02:38:14.868Z,18.00
2022-08-29T02:40:47.749Z,17.98
2022-08-29T02:43:19.259Z,17.91
2022-08-29T02:45:51.082Z,17.81
2022-08-29T02:48:23.445Z,17.72
2022-08-29T02:50:58.952Z,17.91
2022-08-29T02:53:32.173Z,17.93
2022-08-29T02:56:04.080Z,17.98
2022-08-29T02:58:35.705Z,17.80
2022-08-29T03:01:07.716Z,17.70
2022-08-29T03:03:39.968Z,17.70
2022-08-29T03:06:12.408Z,17.52
2022-08-29T03:08:44.629Z,17.52
2022-08-29T03:11:17.187Z,17.31
2022-08-29T03:13:49.689Z,17.28
2022-08-29T03:16:21.549Z,17.20
2022-08-29T03:18:53.381Z,17.22
2022-08-29T03:21:27.666Z,17.32
2022-08-29T03:23:59.424Z,17.36
2022-08-29T03:26:31.555Z,17.20
2022-08-29T03:29:03.619Z,17.21
2022-08-29T03:31:35.849Z,17.10
2022-08-29T03:34:08.118Z,17.06
2022-08-29T03:36:39.781Z,17.16
2022-08-29T03:39:11.577Z,16.87
2022-08-29T03:41:43.553Z,16.86
2022-08-29T03:44:15.498Z,16.98
2022-08-29T03:46:47.321Z,17.05
2022-08-29T03:49:18.977Z,16.96
2022-08-29T03:51:51.089Z,17.02
2022-08-29T03:54:23.150Z,17.12
2022-08-29T03:56:55.624Z,16.95
2022-08-29T03:59:27.388Z,16.87
2022-08-29T04:01:59.345Z,16.84
2022-08-29T04:04:48.714Z,16.80
2022-08-29T04:07:20.725Z,16.75
2022-08-29T04:09:52.563Z,16.69
2022-08-29T04:12:24.243Z,16.64
2022-08-29T04:14:56.194Z,16.78
2022-08-29T04:17:28.065Z,16.66
2022-08-29T04:19:59.703Z,16.64
2022-08-29T04:22:31.779Z,16.61
2022-08-29T04:25:04.302Z,16.47
2022-08-29T04:27:37.487Z,16.27
2022-08-29T04:30:13.169Z,16.40
2022-08-29T04:32:45.252Z,16.56
2022-08-29T04:35:17.826Z,16.70
2022-08-29T04:37:50.792Z,16.46
2022-08-29T04:40:24.496Z,16.57
2022-08-29T04:42:56.432Z,16.59
2022-08-29T04:45:29.048Z,16.52
2022-08-29T04:48:03.461Z,16.41
2022-08-29T04:50:35.956Z,16.36
2022-08-29T04:53:07.718Z,16.38
2022-08-29T04:55:39.389Z,16.33
2022-08-29T04:58:11.874Z,16.26
2022-08-29T05:00:43.824Z,16.13
2022-08-29T05:03:15.590Z,16.03
2022-08-29T05:05:47.670Z,16.07
2022-08-29T05:08:21.005Z,16.05
2022-08-29T05:10:52.828Z,16.18
2022-08-29T05:13:25.053Z,16.19
2022-08-29T05:15:57.441Z,16.03
2022-08-29T05:18:29.209Z,16.06
2022-08-29T05:21:01.174Z,15.98
2022-08-29T05:23:33.040Z,16.00
2022-08-29T05:26:06.226Z,16.08
2022-08-29T05:28:38.344Z,16.14
2022-08-29T05:31:13.899Z,16.20
2022-08-29T05:33:45.809Z,16.26
2022-08-29T05:36:17.500Z,16.17
2022-08-29T05:38:49.350Z,16.16
2022-08-29T05:41:21.172Z,16.18
2022-08-29T05:43:54.246Z,16.38
2022-08-29T05:46:26.846Z,16.34
2022-08-29T05:48:58.605Z,16.43
2022-08-29T05:51:37.297Z,16.47
2022-08-29T05:54:11.549Z,16.44
2022-08-29T05:56:43.285Z,16.38
2022-08-29T05:59:15.182Z,16.41
2022-08-29T06:01:47.915Z,16.47
2022-08-29T06:04:20.120Z,16.56
2022-08-29T06:06:51.862Z,16.50
2022-08-29T06:09:23.722Z,16.57
2022-08-29T06:11:57.649Z,16.70
2022-08-29T06:14:29.760Z,16.75
2022-08-29T06:17:01.353Z,16.80
2022-08-29T06:19:34.911Z,16.84
2022-08-29T06:22:09.944Z,16.93
2022-08-29T06:24:44.592Z,16.83
2022-08-29T06:27:16.373Z,16.85
2022-08-29T06:29:48.411Z,16.99
2022-08-29T06:32:20.234Z,17.02
2022-08-29T06:34:52.141Z,17.02
2022-08-29T06:37:23.848Z,17.03
2022-08-29T06:39:55.688Z,17.05
2022-08-29T06:42:28.747Z,17.05
2022-08-29T06:45:00.611Z,17.13
2022-08-29T06:47:32.447Z,17.16
2022-08-29T06:50:04.634Z,17.22
2022-08-29T06:52:36.530Z,17.22
2022-08-29T06:55:11.782Z,17.20
2022-08-29T06:57:46.125Z,17.41
2022-08-29T07:00:22.101Z,17.37
2022-08-29T07:02:55.018Z,17.43
2022-08-29T07:05:26.812Z,17.54
2022-08-29T07:07:58.516Z,17.64
2022-08-29T07:10:30.230Z,17.77
2022-08-29T07:13:02.065Z,17.78
2022-08-29T07:15:33.904Z,17.87
2022-08-29T07:18:05.967Z,17.84
2022-08-29T07:20:39.394Z,17.89
2022-08-29T07:23:11.145Z,17.91
2022-08-29T07:25:42.242Z,18.00
2022-08-29T07:28:14.511Z,18.04
2022-08-29T07:30:47.131Z,18.10
2022-08-29T07:33:18.973Z,18.06
2022-08-29T07:35:51.811Z,17.94
2022-08-29T07:38:22.215Z,18.11
2022-08-29T07:41:01.128Z,18.02
2022-08-29T07:43:33.198Z,18.06
2022-08-29T07:46:10.456Z,18.05
2022-08-29T07:48:43.568Z,18.10
2022-08-29T07:51:17.468Z,18.20
2022-08-29T07:53:49.431Z,18.33
2022-08-29T07:56:24.564Z,18.25
2022-08-29T07:58:57.834Z,18.38
2022-08-29T08:01:30.080Z,18.35
2022-08-29T08:04:01.959Z,18.32
2022-08-29T08:06:36.658Z,18.49
2022-08-29T08:09:10.191Z,18.64
2022-08-29T08:11:42.987Z,18.77
2022-08-29T08:14:15.106Z,18.69
2022-08-29T08:16:47.329Z,18.75
2022-08-29T08:19:19.249Z,18.89
2022-08-29T08:21:51.876Z,18.90
2022-08-29T08:24:25.145Z,18.86
2022-08-29T08:26:56.968Z,18.96
2022-08-29T08:29:28.661Z,19.13
2022-08-29T08:32:00.425Z,19.26
2022-08-29T08:34:35.885Z,19.44
2022-08-29T08:37:11.095Z,19.56
2022-08-29T08:39:45.713Z,19.52
2022-08-29T08:42:28.829Z,19.57
2022-08-29T08:45:09.200Z,19.61
2022-08-29T08:47:45.776Z,19.58
2022-08-29T08:50:25.276Z,19.55
2022-08-29T08:53:04.326Z,19.69
2022-08-29T08:55:45.514Z,19.92
2022-08-29T08:58:28.844Z,19.96
2022-08-29T09:01:05.015Z,19.90
2022-08-29T09:03:57.349Z,19.93
2022-08-29T09:06:53.298Z,19.95
2022-08-29T09:09:36.679Z,20.04
2022-08-29T09:12:19.424Z,20.11
2022-08-29T09:15:03.215Z,20.08
2022-08-29T09:17:43.612Z,20.12
2022-08-29T09:20:20.430Z,20.16
2022-08-29T09:23:01.402Z,20.22
2022-08-29T09:25:36.481Z,20.35
2022-08-29T09:28:10.499Z,20.49
2022-08-29T09:30:44.768Z,20.65
2022-08-29T09:33:19.089Z,20.61
2022-08-29T09:35:53.694Z,20.91
2022-08-29T09:38:28.171Z,20.92
2022-08-29T09:41:02.302Z,20.96
2022-08-29T09:43:50.386Z,20.95
2022-08-29T09:46:25.551Z,20.83
2022-08-29T09:49:14.113Z,21.02
2022-08-29T09:51:48.931Z,21.26
2022-08-29T09:54:28.246Z,21.41
2022-08-29T09:57:06.588Z,21.46
2022-08-29T09:59:41.861Z,21.40
2022-08-29T10:02:22.705Z,21.32
2022-08-29T10:04:57.784Z,21.22
2022-08-29T10:07:31.632Z,21.40
2022-08-29T10:10:08.014Z,21.56
2022-08-29T10:12:51.016Z,21.70
2022-08-29T10:15:49.206Z,21.92
2022-08-29T10:18:28.844Z,21.91
2022-08-29T10:21:13.415Z,22.14
2022-08-29T10:24:01.119Z,22.01
2022-08-29T10:26:42.656Z,22.03
2022-08-29T10:29:31.455Z,22.03
2022-08-29T10:32:11.371Z,21.90
2022-08-29T10:35:01.892Z,22.10
2022-08-29T10:37:44.801Z,22.39
2022-08-29T10:40:17.590Z,22.67
2022-08-29T10:42:49.373Z,22.38
2022-08-29T10:45:36.294Z,22.34
2022-08-29T10:48:14.185Z,22.30
2022-08-29T10:50:54.180Z,22.33
2022-08-29T10:53:31.954Z,22.37
2022-08-29T10:56:13.441Z,22.61
2022-08-29T10:58:57.135Z,22.54
2022-08-29T11:01:35.482Z,22.59
2022-08-29T11:04:17.799Z,22.50
2022-08-29T11:06:56.855Z,22.51
2022-08-29T11:09:34.962Z,22.38
2022-08-29T11:12:17.668Z,22.25
2022-08-29T11:14:54.208Z,22.32
2022-08-29T11:17:31.038Z,22.58
2022-08-29T11:20:11.708Z,22.90
2022-08-29T11:22:49.642Z,22.69
2022-08-29T11:25:23.318Z,22.62
2022-08-29T11:28:04.575Z,22.43
2022-08-29T11:30:44.890Z,22.27
2022-08-29T11:33:24.043Z,22.23
2022-08-29T11:36:13.607Z,22.26
2022-08-29T11:39:02.775Z,22.30
2022-08-29T11:41:37.138Z,22.36
2022-08-29T11:44:19.110Z,22.52
2022-08-29T11:46:56.228Z,22.42
2022-08-29T11:49:39.797Z,22.47
2022-08-29T11:52:22.824Z,22.42
2022-08-29T11:55:24.230Z,22.53
2022-08-29T11:58:07.201Z,22.44
2022-08-29T12:00:53.232Z,22.44
2022-08-29T12:03:57.273Z,22.47
2022-08-29T12:07:01.055Z,23.12
2022-08-29T12:09:47.369Z,22.98
2022-08-29T12:12:40.607Z,22.81
2022-08-29T12:15:46.272Z,22.80
2022-08-29T12:18:36.673Z,22.57
2022-08-29T12:21:45.687Z,22.57
2022-08-29T12:24:40.915Z,22.49
2022-08-29T12:27:47.624Z,22.51
2022-08-29T12:30:20.737Z,22.49
2022-08-29T12:33:05.065Z,22.46
2022-08-29T12:36:18.258Z,22.41
2022-08-29T12:39:07.288Z,22.40
2022-08-29T12:41:52.616Z,22.50
2022-08-29T12:44:29.246Z,22.40
2022-08-29T12:47:08.719Z,22.47
2022-08-29T12:49:51.401Z,22.43
2022-08-29T12:52:27.792Z,22.45
2022-08-29T12:55:17.594Z,22.49
2022-08-29T12:57:50.451Z,22.53
2022-08-29T13:00:25.510Z,22.62
2022-08-29T13:03:04.108Z,22.70
2022-08-29T13:05:38.319Z,22.66
2022-08-29T13:08:13.390Z,22.62
2022-08-29T13:10:57.877Z,22.66
2022-08-29T13:13:30.535Z,22.61
2022-08-29T13:16:02.277Z,22.50
2022-08-29T13:18:44.596Z,22.37
2022-08-29T13:21:28.224Z,22.31
2022-08-29T13:24:12.759Z,22.31
2022-08-29T13:27:04.541Z,22.17
2022-08-29T13:29:40.810Z,22.01
2022-08-29T13:32:23.190Z,21.97
2022-08-29T13:35:17.658Z,22.03
2022-08-29T13:38:18.807Z,22.00
2022-08-29T13:40:53.429Z,22.10
2022-08-29T13:43:36.836Z,22.27
2022-08-29T13:46:18.260Z,22.24
2022-08-29T13:48:58.585Z,22.18
2022-08-29T13:51:30.443Z,22.20
2022-08-29T13:54:02.179Z,22.26
2022-08-29T13:56:35.124Z,22.28
2022-08-29T13:59:07.057Z,22.30
2022-08-29T14:04:40.415Z,22.41
2022-08-29T14:07:19.187Z,22.55
2022-08-29T14:09:52.234Z,22.63
2022-08-29T14:12:33.749Z,22.49
2022-08-29T14:15:09.717Z,22.44
2022-08-29T14:17:43.674Z,22.53
2022-08-29T14:20:19.490Z,22.46
2022-08-29T14:22:51.196Z,22.53
2022-08-29T14:25:25.018Z,22.70
2022-08-29T14:27:56.997Z,22.69
2022-08-29T14:30:28.953Z,22.79
2022-08-29T14:33:01.701Z,22.70
2022-08-29T14:35:33.857Z,22.84
2022-08-29T14:38:11.100Z,22.88
2022-08-29T14:40:43.693Z,23.11
2022-08-29T14:43:16.031Z,22.69
2022-08-29T14:45:47.798Z,22.54
2022-08-29T14:48:19.633Z,22.60
2022-08-29T14:50:51.475Z,22.56
2022-08-29T14:53:23.464Z,22.89
2022-08-29T14:55:56.024Z,23.00
2022-08-29T14:58:26.446Z,23.12
2022-08-29T15:00:58.715Z,23.00
2022-08-29T15:03:31.228Z,23.21
2022-08-29T15:06:03.286Z,23.46
2022-08-29T15:08:35.336Z,23.68
2022-08-29T15:11:07.518Z,23.55
2022-08-29T15:13:39.557Z,23.04
2022-08-29T15:16:12.013Z,23.09
2022-08-29T15:19:31.191Z,23.54
2022-08-29T15:21:34.243Z,23.57
2022-08-29T15:24:06.821Z,23.54
2022-08-29T15:26:37.016Z,23.41
2022-08-29T15:29:09.485Z,23.44
2022-08-29T15:31:41.227Z,23.27
2022-08-29T15:34:13.144Z,23.25
2022-08-29T15:36:45.057Z,23.13
2022-08-29T15:39:17.397Z,23.16
2022-08-29T15:41:49.818Z,23.11
2022-08-29T15:44:21.711Z,23.09
2022-08-29T15:46:52.573Z,22.81
2022-08-29T15:49:26.430Z,22.61
2022-08-29T15:51:59.289Z,22.49
2022-08-29T15:54:31.021Z,22.31
2022-08-29T15:57:04.038Z,22.23
2022-08-29T15:59:57.149Z,22.36
2022-08-29T16:02:29.011Z,22.47
2022-08-29T16:05:02.120Z,22.56
2022-08-29T16:07:33.997Z,22.34
2022-08-29T16:10:10.892Z,22.20
2022-08-29T16:12:43.617Z,22.23
2022-08-29T16:15:16.708Z,22.16
2022-08-29T16:17:49.065Z,22.16
2022-08-29T16:20:20.915Z,22.01
2022-08-29T16:22:52.780Z,22.03
2022-08-29T16:25:25.599Z,22.03
2022-08-29T16:27:57.923Z,22.09
2022-08-29T16:30:30.794Z,21.96
2022-08-29T16:33:01.747Z,21.77
2022-08-29T16:35:33.489Z,21.68
2022-08-29T16:38:05.522Z,21.68
2022-08-29T16:40:37.536Z,21.62
2022-08-29T16:43:10.203Z,21.48
2022-08-29T16:45:41.970Z,21.54
2022-08-29T16:48:15.700Z,21.60
2022-08-29T16:50:50.152Z,21.55
2022-08-29T16:53:22.685Z,21.53
2022-08-29T16:55:54.501Z,21.51
2022-08-29T16:58:44.082Z,21.52
2022-08-29T17:01:16.304Z,21.48
2022-08-29T17:03:48.769Z,21.47
2022-08-29T17:06:20.520Z,21.50
2022-08-29T17:08:51.462Z,21.50
2022-08-29T17:11:23.159Z,21.45
2022-08-29T17:13:54.200Z,21.43
2022-08-29T17:16:25.602Z,21.38
2022-08-29T17:18:58.150Z,21.23
2022-08-29T17:21:31.881Z,21.19
2022-08-29T17:24:06.800Z,21.16
2022-08-29T17:26:42.172Z,21.10
2022-08-29T17:29:14.080Z,21.03
2022-08-29T17:31:47.075Z,20.87
2022-08-29T17:34:19.595Z,20.84
2022-08-29T17:36:51.334Z,20.72
2022-08-29T17:39:23.916Z,20.69
2022-08-29T17:41:55.864Z,20.75
2022-08-29T17:44:27.835Z,20.69
2022-08-29T17:46:59.980Z,20.65
2022-08-29T17:49:32.418Z,20.95
2022-08-29T17:52:04.636Z,21.07
2022-08-29T17:54:36.652Z,21.19
2022-08-29T17:57:09.414Z,21.09
2022-08-29T17:59:42.487Z,21.20
2022-08-29T18:02:15.440Z,21.28
2022-08-29T18:04:47.205Z,21.19
2022-08-29T18:07:18.973Z,21.19
2022-08-29T18:09:50.761Z,21.28
2022-08-29T18:12:22.647Z,21.02
2022-08-29T18:14:55.028Z,20.99
2022-08-29T18:17:26.810Z,20.98
2022-08-29T18:19:59.244Z,20.90
2022-08-29T18:22:31.330Z,20.87
2022-08-29T18:25:03.121Z,20.99
2022-08-29T18:27:35.146Z,20.88
2022-08-29T18:30:09.934Z,20.79
2022-08-29T18:32:42.209Z,20.99
2022-08-29T18:35:14.207Z,21.20
2022-08-29T18:37:46.195Z,20.97
2022-08-29T18:40:18.016Z,20.90
2022-08-29T18:42:49.811Z,20.84
2022-08-29T18:45:21.855Z,20.98
2022-08-29T18:47:53.700Z,21.02
2022-08-29T18:50:35.502Z,21.22
2022-08-29T18:53:11.949Z,20.85
2022-08-29T18:55:51.047Z,21.01
2022-08-29T18:58:27.722Z,20.97
2022-08-29T19:01:00.687Z,20.86
2022-08-29T19:03:33.219Z,21.07
2022-08-29T19:06:06.063Z,20.87
2022-08-29T19:08:39.610Z,21.15
2022-08-29T19:11:12.394Z,20.90
2022-08-29T19:13:46.279Z,20.97
2022-08-29T19:16:21.548Z,21.01
2022-08-29T19:18:54.347Z,21.31
2022-08-29T19:21:26.985Z,21.10
2022-08-29T19:23:59.201Z,21.26
2022-08-29T19:26:37.259Z,21.30
2022-08-29T19:29:13.334Z,21.48
2022-08-29T19:31:46.496Z,21.59
2022-08-29T19:34:18.757Z,21.32
2022-08-29T19:36:51.661Z,21.30
2022-08-29T19:39:24.236Z,21.30
2022-08-29T19:41:56.661Z,21.30
2022-08-29T19:44:31.049Z,21.34
2022-08-29T19:47:07.056Z,21.11
2022-08-29T19:49:40.999Z,21.03
2022-08-29T19:52:15.253Z,20.83
2022-08-29T19:54:47.099Z,20.96
2022-08-29T19:57:22.824Z,20.99
2022-08-29T19:59:55.261Z,21.15
2022-08-29T20:02:28.172Z,20.72
2022-08-29T20:05:00.504Z,20.92
2022-08-29T20:07:32.333Z,20.84
2022-08-29T20:10:04.139Z,20.89
2022-08-29T20:12:36.959Z,20.83
2022-08-29T20:15:12.662Z,20.90
2022-08-29T20:17:44.497Z,20.73
2022-08-29T20:20:20.604Z,20.91
2022-08-29T20:22:52.861Z,20.70
2022-08-29T20:25:25.740Z,20.59
2022-08-29T20:27:57.479Z,20.65
2022-08-29T20:30:32.169Z,20.85
2022-08-29T20:33:04.712Z,20.54
2022-08-29T20:35:55.178Z,20.45
2022-08-29T20:38:27.128Z,20.16
2022-08-29T20:41:00.580Z,20.07
2022-08-29T20:43:32.564Z,20.11
2022-08-29T20:46:08.888Z,20.08
2022-08-29T20:48:40.823Z,20.11
2022-08-29T20:51:13.193Z,20.02
2022-08-29T20:53:45.288Z,20.14
2022-08-29T20:56:16.968Z,20.02
2022-08-29T20:58:48.743Z,20.09
2022-08-29T21:01:21.130Z,20.22
2022-08-29T21:04:10.817Z,20.21
2022-08-29T21:06:42.638Z,20.23
2022-08-29T21:09:14.381Z,20.10
2022-08-29T21:11:46.132Z,20.14
2022-08-29T21:14:18.038Z,20.02
2022-08-29T21:16:50.488Z,20.02
2022-08-29T21:19:21.307Z,19.94
2022-08-29T21:21:53.919Z,19.91
2022-08-29T21:24:25.986Z,20.00
2022-08-29T21:26:58.217Z,19.90
2022-08-29T21:29:30.292Z,19.92
2022-08-29T21:32:02.272Z,19.94
2022-08-29T21:34:34.218Z,19.83
2022-08-29T21:37:06.622Z,19.80
2022-08-29T21:39:38.429Z,19.83
2022-08-29T21:42:10.377Z,19.88
2022-08-29T21:44:42.774Z,19.72
2022-08-29T21:47:17.711Z,19.82
2022-08-29T21:49:51.660Z,19.91
2022-08-29T21:52:24.025Z,20.02
2022-08-29T21:54:55.965Z,19.97
2022-08-29T21:57:45.378Z,19.81
2022-08-29T22:00:18.428Z,19.82
2022-08-29T22:02:50.787Z,19.77
2022-08-29T22:05:23.305Z,19.82
2022-08-29T22:07:55.073Z,19.74
2022-08-29T22:10:30.387Z,19.69
2022-08-29T22:13:03.754Z,19.69
2022-08-29T22:15:53.321Z,19.70
2022-08-29T22:18:25.402Z,19.80
2022-08-29T22:20:58.537Z,19.77
2022-08-29T22:23:30.768Z,19.69
2022-08-29T22:26:02.557Z,19.64
2022-08-29T22:28:34.251Z,19.62
2022-08-29T22:31:06.327Z,19.59
2022-08-29T22:33:38.390Z,19.64
2022-08-29T22:36:13.856Z,19.66
2022-08-29T22:38:47.366Z,19.61
2022-08-29T22:41:25.834Z,19.67
2022-08-29T22:44:31.958Z,19.59
2022-08-29T22:46:49.883Z,19.71
2022-08-29T22:49:21.703Z,19.63
2022-08-29T22:51:53.831Z,19.66
2022-08-29T22:54:37.630Z,19.55
2022-08-29T22:57:11.814Z,19.52
2022-08-29T22:59:44.922Z,19.57
2022-08-29T23:02:17.551Z,19.57
2022-08-29T23:04:51.597Z,19.53
2022-08-29T23:07:24.470Z,19.53
2022-08-29T23:09:56.509Z,19.47
2022-08-29T23:12:28.612Z,19.50
2022-08-29T23:15:00.516Z,19.38
2022-08-29T23:17:32.686Z,19.31
2022-08-29T23:20:05.596Z,19.34
2022-08-29T23:22:37.950Z,19.49
2022-08-29T23:25:12.132Z,19.48
2022-08-29T23:27:44.413Z,19.45
2022-08-29T23:30:16.869Z,19.41
2022-08-29T23:32:48.552Z,19.46
2022-08-29T23:35:20.350Z,19.31
2022-08-29T23:37:52.164Z,19.31
2022-08-29T23:40:23.984Z,19.24
2022-08-29T23:42:55.995Z,19.16
2022-08-29T23:45:27.880Z,19.29
2022-08-29T23:47:59.746Z,19.17
2022-08-29T23:50:31.607Z,19.15
2022-08-29T23:53:03.407Z,19.21
2022-08-29T23:55:35.225Z,19.28
2022-08-29T23:58:06.982Z,19.24
